sensor_id;sensor_type;location;lat;lon;timestamp;pressure;altitude;pressure_sealevel;temperature;humidity
49949;BME280;35840;45.982;8.890;2023-02-13T00:00:45;100402.88;;;3.92;56.93
49949;BME280;35840;45.982;8.890;2023-02-13T00:03:13;100405.38;;;4.00;56.30
49949;BME280;35840;45.982;8.890;2023-02-13T00:05:40;100402.03;;;3.93;56.85
49949;BME280;35840;45.982;8.890;2023-02-13T00:08:06;100407.13;;;3.93;57.07
49949;BME280;35840;45.982;8.890;2023-02-13T00:10:33;100409.66;;;3.91;56.14
49949;BME280;35840;45.982;8.890;2023-02-13T00:13:00;100401.16;;;3.94;57.02
49949;BME280;35840;45.982;8.890;2023-02-13T00:15:27;100402.84;;;3.93;56.85
49949;BME280;35840;45.982;8.890;2023-02-13T00:17:53;100405.41;;;3.79;56.67
49949;BME280;35840;45.982;8.890;2023-02-13T00:20:20;100402.00;;;3.79;57.16
49949;BME280;35840;45.982;8.890;2023-02-13T00:22:47;100405.41;;;3.75;57.47
49949;BME280;35840;45.982;8.890;2023-02-13T00:25:14;100404.56;;;3.81;56.88
49949;BME280;35840;45.982;8.890;2023-02-13T00:27:40;100413.03;;;3.79;57.03
49949;BME280;35840;45.982;8.890;2023-02-13T00:30:07;100408.78;;;3.66;56.86
49949;BME280;35840;45.982;8.890;2023-02-13T00:32:34;100404.56;;;3.59;57.16
49949;BME280;35840;45.982;8.890;2023-02-13T00:35:01;100413.88;;;3.68;56.36
49949;BME280;35840;45.982;8.890;2023-02-13T00:37:28;100407.94;;;3.73;56.72
49949;BME280;35840;45.982;8.890;2023-02-13T00:39:55;100413.03;;;3.67;56.68
49949;BME280;35840;45.982;8.890;2023-02-13T00:42:22;100406.25;;;3.61;57.19
49949;BME280;35840;45.982;8.890;2023-02-13T00:44:52;100413.88;;;3.68;56.54
49949;BME280;35840;45.982;8.890;2023-02-13T00:47:19;100409.63;;;3.60;56.23
49949;BME280;35840;45.982;8.890;2023-02-13T00:49:46;100407.91;;;3.33;57.20
49949;BME280;35840;45.982;8.890;2023-02-13T00:52:13;100417.22;;;3.40;57.23
49949;BME280;35840;45.982;8.890;2023-02-13T00:54:39;100413.00;;;3.41;56.01
49949;BME280;35840;45.982;8.890;2023-02-13T00:57:06;100427.41;;;3.45;57.41
49949;BME280;35840;45.982;8.890;2023-02-13T00:59:33;100433.38;;;3.59;56.81
49949;BME280;35840;45.982;8.890;2023-02-13T01:02:00;100429.13;;;3.61;56.31
49949;BME280;35840;45.982;8.890;2023-02-13T01:04:26;100432.50;;;3.51;57.57
49949;BME280;35840;45.982;8.890;2023-02-13T01:06:55;100439.28;;;3.52;56.75
49949;BME280;35840;45.982;8.890;2023-02-13T01:09:22;100436.75;;;3.55;56.96
49949;BME280;35840;45.982;8.890;2023-02-13T01:11:49;100437.56;;;3.42;56.61
49949;BME280;35840;45.982;8.890;2023-02-13T01:14:16;100442.66;;;3.40;57.70
49949;BME280;35840;45.982;8.890;2023-02-13T01:16:43;100441.81;;;3.44;56.75
49949;BME280;35840;45.982;8.890;2023-02-13T01:19:09;100442.66;;;3.39;56.83
49949;BME280;35840;45.982;8.890;2023-02-13T01:21:36;100436.69;;;3.40;57.36
49949;BME280;35840;45.982;8.890;2023-02-13T01:24:04;100445.19;;;3.45;57.42
49949;BME280;35840;45.982;8.890;2023-02-13T01:26:31;100444.38;;;3.48;56.35
49949;BME280;35840;45.982;8.890;2023-02-13T01:28:57;100448.59;;;3.44;57.25
49949;BME280;35840;45.982;8.890;2023-02-13T01:31:24;100449.41;;;3.38;57.15
49949;BME280;35840;45.982;8.890;2023-02-13T01:33:54;100442.63;;;3.30;57.44
49949;BME280;35840;45.982;8.890;2023-02-13T01:36:21;100447.69;;;3.22;57.85
49949;BME280;35840;45.982;8.890;2023-02-13T01:38:52;100440.06;;;3.23;57.39
49949;BME280;35840;45.982;8.890;2023-02-13T01:41:19;100445.09;;;3.19;57.34
49949;BME280;35840;45.982;8.890;2023-02-13T01:43:55;100445.16;;;3.22;57.21
49949;BME280;35840;45.982;8.890;2023-02-13T01:46:27;100447.69;;;3.23;57.20
49949;BME280;35840;45.982;8.890;2023-02-13T01:49:02;100442.56;;;3.16;57.54
49949;BME280;35840;45.982;8.890;2023-02-13T01:51:33;100445.94;;;3.15;58.03
49949;BME280;35840;45.982;8.890;2023-02-13T01:54:08;100445.91;;;3.02;57.85
49949;BME280;35840;45.982;8.890;2023-02-13T01:56:40;100445.09;;;3.08;58.04
49949;BME280;35840;45.982;8.890;2023-02-13T01:59:14;100447.66;;;3.17;57.99
49949;BME280;35840;45.982;8.890;2023-02-13T02:01:43;100452.72;;;3.08;57.72
49949;BME280;35840;45.982;8.890;2023-02-13T02:04:29;100448.47;;;3.08;58.62
49949;BME280;35840;45.982;8.890;2023-02-13T02:07:10;100439.13;;;3.06;57.81
49949;BME280;35840;45.982;8.890;2023-02-13T02:09:41;100446.75;;;3.06;57.60
49949;BME280;35840;45.982;8.890;2023-02-13T02:14:39;100442.56;;;3.16;57.52
49949;BME280;35840;45.982;8.890;2023-02-13T02:17:09;100451.00;;;3.12;57.53
49949;BME280;35840;45.982;8.890;2023-02-13T02:32:02;100442.47;;;2.94;57.89
49949;BME280;35840;45.982;8.890;2023-02-13T02:40:16;100445.81;;;2.82;57.94
49949;BME280;35840;45.982;8.890;2023-02-13T02:43:12;100444.97;;;2.82;57.79
49949;BME280;35840;45.982;8.890;2023-02-13T02:45:48;100453.38;;;2.71;58.98
49949;BME280;35840;45.982;8.890;2023-02-13T02:48:52;100444.88;;;2.68;58.02
49949;BME280;35840;45.982;8.890;2023-02-13T02:51:47;100441.56;;;2.80;58.36
49949;BME280;35840;45.982;8.890;2023-02-13T02:57:26;100447.44;;;2.69;58.78
49949;BME280;35840;45.982;8.890;2023-02-13T03:00:17;100451.69;;;2.75;58.75
49949;BME280;35840;45.982;8.890;2023-02-13T03:03:23;100445.75;;;2.67;58.18
49949;BME280;35840;45.982;8.890;2023-02-13T03:06:46;100446.50;;;2.53;58.55
49949;BME280;35840;45.982;8.890;2023-02-13T03:09:14;100441.47;;;2.58;58.91
49949;BME280;35840;45.982;8.890;2023-02-13T03:12:00;100438.94;;;2.63;59.25
49949;BME280;35840;45.982;8.890;2023-02-13T03:14:46;100447.38;;;2.58;59.02
49949;BME280;35840;45.982;8.890;2023-02-13T03:17:14;100437.25;;;2.65;58.43
49949;BME280;35840;45.982;8.890;2023-02-13T03:23:16;100438.88;;;2.55;59.37
49949;BME280;35840;45.982;8.890;2023-02-13T03:31:36;100441.47;;;2.58;59.51
49949;BME280;35840;45.982;8.890;2023-02-13T03:34:17;100443.94;;;2.49;59.56
49949;BME280;35840;45.982;8.890;2023-02-13T03:36:57;100443.91;;;2.41;59.09
49949;BME280;35840;45.982;8.890;2023-02-13T03:45:09;100448.13;;;2.44;59.27
49949;BME280;35840;45.982;8.890;2023-02-13T03:47:57;100447.19;;;2.32;59.61
49949;BME280;35840;45.982;8.890;2023-02-13T03:50:26;100446.44;;;2.43;59.17
49949;BME280;35840;45.982;8.890;2023-02-13T03:53:01;100448.97;;;2.41;58.78
49949;BME280;35840;45.982;8.890;2023-02-13T03:55:49;100454.88;;;2.40;58.95
49949;BME280;35840;45.982;8.890;2023-02-13T03:58:46;100445.56;;;2.40;59.76
49949;BME280;35840;45.982;8.890;2023-02-13T04:01:35;100443.03;;;2.40;59.69
49949;BME280;35840;45.982;8.890;2023-02-13T04:09:08;100444.66;;;2.29;59.67
49949;BME280;35840;45.982;8.890;2023-02-13T04:11:47;100442.06;;;2.23;60.16
49949;BME280;35840;45.982;8.890;2023-02-13T04:17:12;100453.97;;;2.33;59.83
49949;BME280;35840;45.982;8.890;2023-02-13T04:19:41;100444.66;;;2.32;60.07
49949;BME280;35840;45.982;8.890;2023-02-13T04:22:10;100446.34;;;2.27;59.69
49949;BME280;35840;45.982;8.890;2023-02-13T04:24:37;100453.88;;;2.22;59.77
49949;BME280;35840;45.982;8.890;2023-02-13T04:27:04;100449.72;;;2.29;59.61
49949;BME280;35840;45.982;8.890;2023-02-13T04:29:30;100443.75;;;2.22;59.80
49949;BME280;35840;45.982;8.890;2023-02-13T04:31:57;100426.75;;;2.12;60.35
49949;BME280;35840;45.982;8.890;2023-02-13T04:34:24;100448.88;;;2.29;60.17
49949;BME280;35840;45.982;8.890;2023-02-13T04:36:50;100448.00;;;2.27;59.90
49949;BME280;35840;45.982;8.890;2023-02-13T04:39:17;100453.00;;;2.13;60.09
49949;BME280;35840;45.982;8.890;2023-02-13T04:41:44;100448.78;;;2.15;60.07
49949;BME280;35840;45.982;8.890;2023-02-13T04:44:11;100447.16;;;2.23;59.30
49949;BME280;35840;45.982;8.890;2023-02-13T04:46:37;100455.56;;;2.19;59.81
49949;BME280;35840;45.982;8.890;2023-02-13T04:49:04;100451.34;;;2.19;59.77
49949;BME280;35840;45.982;8.890;2023-02-13T04:51:31;100446.19;;;2.07;59.79
49949;BME280;35840;45.982;8.890;2023-02-13T04:53:58;100449.53;;;2.01;60.01
49949;BME280;35840;45.982;8.890;2023-02-13T04:56:25;100450.34;;;2.00;60.75
49949;BME280;35840;45.982;8.890;2023-02-13T04:58:51;100442.78;;;2.06;60.26
49949;BME280;35840;45.982;8.890;2023-02-13T05:01:18;100447.88;;;2.11;59.96
49949;BME280;35840;45.982;8.890;2023-02-13T05:03:45;100451.22;;;2.05;60.26
49949;BME280;35840;45.982;8.890;2023-02-13T05:06:11;100448.75;;;2.12;60.15
49949;BME280;35840;45.982;8.890;2023-02-13T05:08:38;100454.69;;;2.14;60.14
49949;BME280;35840;45.982;8.890;2023-02-13T05:11:05;100447.84;;;2.06;60.59
49949;BME280;35840;45.982;8.890;2023-02-13T05:13:32;100451.28;;;2.09;59.99
49949;BME280;35840;45.982;8.890;2023-02-13T05:15:59;100457.19;;;2.09;60.12
49949;BME280;35840;45.982;8.890;2023-02-13T05:18:26;100457.19;;;2.09;59.58
49949;BME280;35840;45.982;8.890;2023-02-13T05:20:53;100455.41;;;1.99;60.16
49949;BME280;35840;45.982;8.890;2023-02-13T05:23:38;100453.69;;;1.95;60.59
49949;BME280;35840;45.982;8.890;2023-02-13T05:26:04;100453.63;;;1.88;60.59
49949;BME280;35840;45.982;8.890;2023-02-13T05:28:31;100458.72;;;1.90;60.85
49949;BME280;35840;45.982;8.890;2023-02-13T05:31:16;100456.25;;;1.98;60.66
49949;BME280;35840;45.982;8.890;2023-02-13T05:33:43;100461.22;;;1.88;60.58
49949;BME280;35840;45.982;8.890;2023-02-13T05:36:10;100459.53;;;1.84;60.78
49949;BME280;35840;45.982;8.890;2023-02-13T05:38:36;100451.00;;;1.79;60.71
49949;BME280;35840;45.982;8.890;2023-02-13T05:41:03;100457.81;;;1.85;60.68
49949;BME280;35840;45.982;8.890;2023-02-13T05:43:30;100454.50;;;1.92;60.61
49949;BME280;35840;45.982;8.890;2023-02-13T05:46:05;100452.81;;;1.94;60.84
49949;BME280;35840;45.982;8.890;2023-02-13T05:48:32;100446.91;;;1.94;60.63
49949;BME280;35840;45.982;8.890;2023-02-13T05:50:59;100453.63;;;1.88;60.95
49949;BME280;35840;45.982;8.890;2023-02-13T05:53:26;100459.47;;;1.80;61.07
49949;BME280;35840;45.982;8.890;2023-02-13T05:55:53;100422.03;;;1.52;60.99
49949;BME280;35840;45.982;8.890;2023-02-13T05:58:20;100460.25;;;1.74;61.08
49949;BME280;35840;45.982;8.890;2023-02-13T06:00:47;100453.53;;;1.79;60.65
49949;BME280;35840;45.982;8.890;2023-02-13T06:03:14;100465.28;;;1.71;60.98
49949;BME280;35840;45.982;8.890;2023-02-13T06:05:40;100461.97;;;1.75;60.86
49949;BME280;35840;45.982;8.890;2023-02-13T06:08:07;100469.59;;;1.80;61.06
49949;BME280;35840;45.982;8.890;2023-02-13T06:10:34;100455.09;;;1.65;61.15
49949;BME280;35840;45.982;8.890;2023-02-13T06:13:00;100446.53;;;1.53;61.12
49949;BME280;35840;45.982;8.890;2023-02-13T06:15:28;100461.00;;;1.64;61.26
49949;BME280;35840;45.982;8.890;2023-02-13T06:17:54;100459.41;;;1.72;60.83
49949;BME280;35840;45.982;8.890;2023-02-13T06:20:21;100457.69;;;1.69;61.27
49949;BME280;35840;45.982;8.890;2023-02-13T06:22:51;100465.31;;;1.74;61.49
49949;BME280;35840;45.982;8.890;2023-02-13T06:25:19;100462.78;;;1.74;61.87
49949;BME280;35840;45.982;8.890;2023-02-13T06:27:46;100470.38;;;1.74;61.44
49949;BME280;35840;45.982;8.890;2023-02-13T06:30:14;100461.09;;;1.73;62.16
49949;BME280;35840;45.982;8.890;2023-02-13T06:32:41;100462.72;;;1.66;62.06
49949;BME280;35840;45.982;8.890;2023-02-13T06:35:08;100459.28;;;1.63;61.61
49949;BME280;35840;45.982;8.890;2023-02-13T06:37:35;100461.00;;;1.65;61.22
49949;BME280;35840;45.982;8.890;2023-02-13T06:40:02;100469.53;;;1.70;61.23
49949;BME280;35840;45.982;8.890;2023-02-13T06:42:29;100466.91;;;1.64;61.06
49949;BME280;35840;45.982;8.890;2023-02-13T06:44:55;100475.38;;;1.62;61.29
49949;BME280;35840;45.982;8.890;2023-02-13T06:47:22;100467.66;;;1.54;61.45
49949;BME280;35840;45.982;8.890;2023-02-13T06:49:49;100465.13;;;1.55;61.70
49949;BME280;35840;45.982;8.890;2023-02-13T06:52:16;100464.38;;;1.63;61.49
49949;BME280;35840;45.982;8.890;2023-02-13T06:54:42;100465.91;;;1.48;61.66
49949;BME280;35840;45.982;8.890;2023-02-13T06:57:14;100463.34;;;1.47;61.99
49949;BME280;35840;45.982;8.890;2023-02-13T06:59:41;100465.09;;;1.51;61.99
49949;BME280;35840;45.982;8.890;2023-02-13T07:02:10;100471.13;;;1.62;62.27
49949;BME280;35840;45.982;8.890;2023-02-13T07:04:36;100476.25;;;1.67;62.34
49949;BME280;35840;45.982;8.890;2023-02-13T07:07:04;100474.59;;;1.70;62.39
49949;BME280;35840;45.982;8.890;2023-02-13T07:09:31;100471.16;;;1.65;62.06
49949;BME280;35840;45.982;8.890;2023-02-13T07:11:58;100457.56;;;1.60;62.45
49949;BME280;35840;45.982;8.890;2023-02-13T07:14:27;100479.53;;;1.57;62.34
49949;BME280;35840;45.982;8.890;2023-02-13T07:16:54;100474.41;;;1.52;62.97
49949;BME280;35840;45.982;8.890;2023-02-13T07:19:20;100475.25;;;1.52;63.17
49949;BME280;35840;45.982;8.890;2023-02-13T07:21:47;100476.19;;;1.59;62.89
49949;BME280;35840;45.982;8.890;2023-02-13T07:24:14;100477.94;;;1.66;62.75
49949;BME280;35840;45.982;8.890;2023-02-13T07:26:41;100475.31;;;1.59;62.69
49949;BME280;35840;45.982;8.890;2023-02-13T07:29:07;100477.84;;;1.59;63.05
49949;BME280;35840;45.982;8.890;2023-02-13T07:31:38;100484.63;;;1.60;63.29
49949;BME280;35840;45.982;8.890;2023-02-13T07:34:06;100485.56;;;1.68;62.94
49949;BME280;35840;45.982;8.890;2023-02-13T07:36:33;100489.88;;;1.77;62.89
49949;BME280;35840;45.982;8.890;2023-02-13T07:38:59;100496.66;;;1.81;62.84
49949;BME280;35840;45.982;8.890;2023-02-13T07:41:26;100477.97;;;1.71;62.64
49949;BME280;35840;45.982;8.890;2023-02-13T07:43:53;100486.53;;;1.82;62.86
49949;BME280;35840;45.982;8.890;2023-02-13T07:46:20;100484.91;;;1.87;63.41
49949;BME280;35840;45.982;8.890;2023-02-13T07:48:47;100485.84;;;1.97;63.60
49949;BME280;35840;45.982;8.890;2023-02-13T07:51:14;100484.19;;;2.02;63.80
49949;BME280;35840;45.982;8.890;2023-02-13T07:53:42;100485.88;;;2.03;64.27
49949;BME280;35840;45.982;8.890;2023-02-13T07:56:09;100496.94;;;2.07;65.15
49949;BME280;35840;45.982;8.890;2023-02-13T07:58:37;100486.72;;;2.04;64.59
49949;BME280;35840;45.982;8.890;2023-02-13T08:01:07;100495.22;;;2.04;64.91
49949;BME280;35840;45.982;8.890;2023-02-13T08:03:34;100493.50;;;2.03;65.41
49949;BME280;35840;45.982;8.890;2023-02-13T08:06:01;100495.28;;;2.15;65.27
49949;BME280;35840;45.982;8.890;2023-02-13T08:08:28;100489.41;;;2.19;64.52
49949;BME280;35840;45.982;8.890;2023-02-13T08:10:56;100482.69;;;2.26;64.82
49949;BME280;35840;45.982;8.890;2023-02-13T08:13:42;100484.47;;;2.36;64.92
49949;BME280;35840;45.982;8.890;2023-02-13T08:16:09;100477.75;;;2.43;64.99
49949;BME280;35840;45.982;8.890;2023-02-13T08:18:35;100474.38;;;2.47;64.90
49949;BME280;35840;45.982;8.890;2023-02-13T08:21:02;100479.50;;;2.56;64.78
49949;BME280;35840;45.982;8.890;2023-02-13T08:23:29;100473.59;;;2.57;65.09
49949;BME280;35840;45.982;8.890;2023-02-13T08:25:59;100480.44;;;2.68;64.53
49949;BME280;35840;45.982;8.890;2023-02-13T08:28:30;100472.91;;;2.80;64.64
49949;BME280;35840;45.982;8.890;2023-02-13T08:30:57;100472.91;;;2.85;64.93
49949;BME280;35840;45.982;8.890;2023-02-13T08:33:24;100472.94;;;2.88;64.72
49949;BME280;35840;45.982;8.890;2023-02-13T08:35:50;100478.06;;;2.96;64.35
49949;BME280;35840;45.982;8.890;2023-02-13T08:38:17;100472.97;;;2.97;64.46
49949;BME280;35840;45.982;8.890;2023-02-13T08:40:44;100478.94;;;3.04;64.24
49949;BME280;35840;45.982;8.890;2023-02-13T08:43:10;100478.97;;;3.12;64.75
49949;BME280;35840;45.982;8.890;2023-02-13T08:45:37;100483.25;;;3.20;65.32
49949;BME280;35840;45.982;8.890;2023-02-13T08:48:04;100479.03;;;3.24;64.00
49949;BME280;35840;45.982;8.890;2023-02-13T08:50:31;100469.69;;;3.23;63.56
49949;BME280;35840;45.982;8.890;2023-02-13T08:52:57;100466.34;;;3.32;64.28
49949;BME280;35840;45.982;8.890;2023-02-13T08:55:26;100466.38;;;3.39;62.39
49949;BME280;35840;45.982;8.890;2023-02-13T08:57:53;100466.38;;;3.44;60.86
49949;BME280;35840;45.982;8.890;2023-02-13T09:00:20;100457.91;;;3.50;59.85
49949;BME280;35840;45.982;8.890;2023-02-13T09:02:47;100460.47;;;3.54;60.08
49949;BME280;35840;45.982;8.890;2023-02-13T09:05:14;100445.22;;;3.50;59.59
49949;BME280;35840;45.982;8.890;2023-02-13T09:07:41;100463.88;;;3.62;60.03
49949;BME280;35840;45.982;8.890;2023-02-13T09:10:08;100449.47;;;3.55;60.60
49949;BME280;35840;45.982;8.890;2023-02-13T09:12:34;100450.31;;;3.60;60.60
49949;BME280;35840;45.982;8.890;2023-02-13T09:15:01;100450.31;;;3.67;60.27
49949;BME280;35840;45.982;8.890;2023-02-13T09:17:29;100446.97;;;3.78;61.59
49949;BME280;35840;45.982;8.890;2023-02-13T09:19:56;100442.72;;;3.99;62.93
49949;BME280;35840;45.982;8.890;2023-02-13T09:22:23;100449.50;;;4.08;63.26
49949;BME280;35840;45.982;8.890;2023-02-13T09:24:49;100450.34;;;4.18;62.37
49949;BME280;35840;45.982;8.890;2023-02-13T09:27:16;100447.81;;;4.21;62.80
49949;BME280;35840;45.982;8.890;2023-02-13T09:29:43;100451.22;;;4.26;61.40
49949;BME280;35840;45.982;8.890;2023-02-13T09:32:10;100444.41;;;4.25;61.56
49949;BME280;35840;45.982;8.890;2023-02-13T09:34:36;100439.31;;;4.22;60.87
49949;BME280;35840;45.982;8.890;2023-02-13T09:37:05;100441.03;;;4.20;60.91
49949;BME280;35840;45.982;8.890;2023-02-13T09:39:32;100443.56;;;4.17;61.59
49949;BME280;35840;45.982;8.890;2023-02-13T09:41:59;100440.19;;;4.18;60.95
49949;BME280;35840;45.982;8.890;2023-02-13T09:44:36;100435.94;;;4.38;61.59
49949;BME280;35840;45.982;8.890;2023-02-13T09:49:48;100426.56;;;4.54;60.97
49949;BME280;35840;45.982;8.890;2023-02-13T09:52:16;100423.16;;;4.55;60.00
49949;BME280;35840;45.982;8.890;2023-02-13T09:54:43;100429.06;;;4.67;59.33
49949;BME280;35840;45.982;8.890;2023-02-13T09:57:38;100429.91;;;4.67;60.58
49949;BME280;35840;45.982;8.890;2023-02-13T10:00:16;100425.66;;;4.74;59.91
49949;BME280;35840;45.982;8.890;2023-02-13T10:11:06;100418.69;;;5.13;59.02
49949;BME280;35840;45.982;8.890;2023-02-13T10:16:42;100416.06;;;5.27;57.39
49949;BME280;35840;45.982;8.890;2023-02-13T10:22:10;100410.78;;;5.59;57.75
49949;BME280;35840;45.982;8.890;2023-02-13T10:24:40;100414.16;;;5.64;57.61
49949;BME280;35840;45.982;8.890;2023-02-13T10:29:58;100417.38;;;5.85;58.13
49949;BME280;35840;45.982;8.890;2023-02-13T10:32:58;100407.94;;;5.96;55.22
49949;BME280;35840;45.982;8.890;2023-02-13T10:38:17;100400.22;;;6.07;54.42
49949;BME280;35840;45.982;8.890;2023-02-13T10:43:55;100392.16;;;6.49;54.34
49949;BME280;35840;45.982;8.890;2023-02-13T10:49:06;100381.63;;;6.77;53.26
49949;BME280;35840;45.982;8.890;2023-02-13T10:51:46;100372.19;;;6.80;53.02
49949;BME280;35840;45.982;8.890;2023-02-13T11:02:29;100353.31;;;6.91;52.57
49949;BME280;35840;45.982;8.890;2023-02-13T11:05:00;100356.44;;;7.11;51.60
49949;BME280;35840;45.982;8.890;2023-02-13T11:07:29;100342.84;;;7.09;51.44
49949;BME280;35840;45.982;8.890;2023-02-13T11:10:00;100340.94;;;7.23;51.26
49949;BME280;35840;45.982;8.890;2023-02-13T11:12:31;100341.59;;;7.36;51.07
49949;BME280;35840;45.982;8.890;2023-02-13T11:14:59;100332.16;;;7.38;49.82
49949;BME280;35840;45.982;8.890;2023-02-13T11:17:34;100336.59;;;7.27;49.07
49949;BME280;35840;45.982;8.890;2023-02-13T11:20:07;100333.88;;;7.38;50.89
49949;BME280;35840;45.982;8.890;2023-02-13T11:22:48;100327.88;;;7.40;49.25
49949;BME280;35840;45.982;8.890;2023-02-13T11:25:25;100319.41;;;7.35;49.56
49949;BME280;35840;45.982;8.890;2023-02-13T11:28:17;100324.31;;;7.51;50.91
49949;BME280;35840;45.982;8.890;2023-02-13T11:30:46;100320.03;;;7.50;50.51
49949;BME280;35840;45.982;8.890;2023-02-13T11:33:20;100323.22;;;7.66;49.95
49949;BME280;35840;45.982;8.890;2023-02-13T11:35:47;100314.50;;;7.76;49.48
49949;BME280;35840;45.982;8.890;2023-02-13T11:40:49;100306.47;;;7.96;48.11
49949;BME280;35840;45.982;8.890;2023-02-13T11:43:28;100309.13;;;7.91;48.69
49949;BME280;35840;45.982;8.890;2023-02-13T11:46:23;100302.56;;;8.22;49.59
49949;BME280;35840;45.982;8.890;2023-02-13T11:49:04;100297.34;;;8.28;48.22
49949;BME280;35840;45.982;8.890;2023-02-13T11:51:55;100307.22;;;8.48;47.67
49949;BME280;35840;45.982;8.890;2023-02-13T11:55:05;100301.81;;;8.62;47.76
49949;BME280;35840;45.982;8.890;2023-02-13T11:57:56;100293.19;;;8.65;46.40
49949;BME280;35840;45.982;8.890;2023-02-13T12:00:27;100291.38;;;8.70;46.62
49949;BME280;35840;45.982;8.890;2023-02-13T12:03:24;100291.00;;;8.87;47.31
49949;BME280;35840;45.982;8.890;2023-02-13T12:06:13;100289.88;;;8.99;46.60
49949;BME280;35840;45.982;8.890;2023-02-13T12:08:46;100291.56;;;9.00;46.46
49949;BME280;35840;45.982;8.890;2023-02-13T12:13:47;100283.13;;;9.32;43.72
49949;BME280;35840;45.982;8.890;2023-02-13T12:19:56;100278.31;;;9.18;45.04
49949;BME280;35840;45.982;8.890;2023-02-13T12:22:40;100271.25;;;9.28;45.48
49949;BME280;35840;45.982;8.890;2023-02-13T12:31:07;100263.00;;;9.84;43.95
49949;BME280;35840;45.982;8.890;2023-02-13T12:36:38;100253.31;;;9.94;43.74
49949;BME280;35840;45.982;8.890;2023-02-13T12:39:23;100245.34;;;10.03;43.81
49949;BME280;35840;45.982;8.890;2023-02-13T12:41:58;100240.09;;;10.06;44.12
49949;BME280;35840;45.982;8.890;2023-02-13T12:44:41;100238.97;;;10.16;43.31
49949;BME280;35840;45.982;8.890;2023-02-13T12:47:21;100238.50;;;10.33;43.27
49949;BME280;35840;45.982;8.890;2023-02-13T13:03:25;100217.69;;;10.71;42.93
49949;BME280;35840;45.982;8.890;2023-02-13T13:06:49;100211.91;;;10.91;41.91
49949;BME280;35840;45.982;8.890;2023-02-13T13:15:30;100195.72;;;10.88;41.86
49949;BME280;35840;45.982;8.890;2023-02-13T13:23:38;100191.81;;;11.02;42.37
49949;BME280;35840;45.982;8.890;2023-02-13T13:28:54;100197.34;;;11.17;42.20
49949;BME280;35840;45.982;8.890;2023-02-13T13:31:22;100182.44;;;11.27;41.87
49949;BME280;35840;45.982;8.890;2023-02-13T13:33:54;100181.53;;;11.28;43.31
49949;BME280;35840;45.982;8.890;2023-02-13T13:40:32;100175.50;;;11.54;41.19
49949;BME280;35840;45.982;8.890;2023-02-13T13:42:43;100176.16;;;11.59;40.59
49949;BME280;35840;45.982;8.890;2023-02-13T13:48:13;100169.56;;;11.52;42.80
49949;BME280;35840;45.982;8.890;2023-02-13T13:50:43;100164.16;;;11.60;42.30
49949;BME280;35840;45.982;8.890;2023-02-13T14:01:26;100158.97;;;11.83;40.74
49949;BME280;35840;45.982;8.890;2023-02-13T14:03:57;100160.78;;;11.81;40.78
49949;BME280;35840;45.982;8.890;2023-02-13T14:11:54;100156.34;;;11.85;41.29
49949;BME280;35840;45.982;8.890;2023-02-13T14:16:55;100150.34;;;11.84;40.22
49949;BME280;35840;45.982;8.890;2023-02-13T14:21:53;100151.75;;;11.93;40.21
49949;BME280;35840;45.982;8.890;2023-02-13T14:24:23;100150.06;;;11.94;40.05
49949;BME280;35840;45.982;8.890;2023-02-13T14:26:55;100147.50;;;11.94;40.63
49949;BME280;35840;45.982;8.890;2023-02-13T14:29:32;100144.78;;;11.97;41.00
49949;BME280;35840;45.982;8.890;2023-02-13T14:32:04;100142.03;;;12.01;39.08
49949;BME280;35840;45.982;8.890;2023-02-13T14:34:36;100141.03;;;12.05;40.28
49949;BME280;35840;45.982;8.890;2023-02-13T14:39:42;100136.56;;;12.09;39.32
49949;BME280;35840;45.982;8.890;2023-02-13T14:42:29;100140.97;;;12.07;39.07
49949;BME280;35840;45.982;8.890;2023-02-13T14:44:58;100134.91;;;12.08;38.77
49949;BME280;35840;45.982;8.890;2023-02-13T14:47:32;100129.75;;;12.08;39.26
49949;BME280;35840;45.982;8.890;2023-02-13T14:50:03;100122.97;;;12.05;39.44
49949;BME280;35840;45.982;8.890;2023-02-13T14:52:37;100127.31;;;12.05;39.22
49949;BME280;35840;45.982;8.890;2023-02-13T14:55:27;100132.63;;;12.00;40.81
49949;BME280;35840;45.982;8.890;2023-02-13T14:58:10;100118.78;;;12.03;40.43
49949;BME280;35840;45.982;8.890;2023-02-13T15:00:45;100114.34;;;12.07;39.99
49949;BME280;35840;45.982;8.890;2023-02-13T15:03:36;100114.09;;;12.13;39.39
49949;BME280;35840;45.982;8.890;2023-02-13T15:06:10;100102.41;;;12.04;39.61
49949;BME280;35840;45.982;8.890;2023-02-13T15:08:48;100116.88;;;12.08;39.96
49949;BME280;35840;45.982;8.890;2023-02-13T15:11:40;100113.56;;;12.04;39.81
49949;BME280;35840;45.982;8.890;2023-02-13T15:14:30;100112.66;;;12.05;39.92
49949;BME280;35840;45.982;8.890;2023-02-13T15:17:19;100111.94;;;12.02;39.81
49949;BME280;35840;45.982;8.890;2023-02-13T15:19:52;100117.94;;;12.02;39.67
49949;BME280;35840;45.982;8.890;2023-02-13T15:22:38;100115.38;;;12.02;40.15
49949;BME280;35840;45.982;8.890;2023-02-13T15:25:07;100112.78;;;12.02;39.94
49949;BME280;35840;45.982;8.890;2023-02-13T15:27:42;100116.06;;;12.06;40.02
49949;BME280;35840;45.982;8.890;2023-02-13T15:32:42;100115.13;;;12.09;39.85
49949;BME280;35840;45.982;8.890;2023-02-13T15:37:48;100113.50;;;12.06;38.61
49949;BME280;35840;45.982;8.890;2023-02-13T15:40:29;100112.91;;;11.99;40.92
49949;BME280;35840;45.982;8.890;2023-02-13T15:42:57;100118.44;;;11.88;40.44
49949;BME280;35840;45.982;8.890;2023-02-13T15:45:26;100108.34;;;11.82;41.08
49949;BME280;35840;45.982;8.890;2023-02-13T15:47:54;100109.50;;;11.74;41.45
49949;BME280;35840;45.982;8.890;2023-02-13T15:50:32;100122.81;;;11.63;42.17
49949;BME280;35840;45.982;8.890;2023-02-13T15:53:02;100120.63;;;11.52;42.79
49949;BME280;35840;45.982;8.890;2023-02-13T15:55:32;100126.19;;;11.40;42.13
49949;BME280;35840;45.982;8.890;2023-02-13T15:57:59;100131.63;;;11.32;42.99
49949;BME280;35840;45.982;8.890;2023-02-13T16:00:31;100126.41;;;11.08;43.90
49949;BME280;35840;45.982;8.890;2023-02-13T16:03:01;100128.13;;;10.82;45.60